Share

Arapahoe, CO

DW8525 (KCOCHEYE5) Elev 4308 ft | 38.82 °N, 102.35 °W | Change Station

Current weather conditions updated 1 second ago

Clear
Clear
39.1 °F
Feels Like 39 °F
N
0.0
Wind Variable Wind from SSW
Gusts 0.2 mph
Sunrise 6:09 AM
Sunset 7:28 PM
Moon Waning Gibbous

Tomorrow is forecast to be Much Warmer than today.

Pressure 30.14 in
Visibility 10.0 miles
Clouds Clear
Windchill 39 °F
Dew Point 35 °F
Humidity 84%
Rainfall 0.00 in
Snow Depth Not available.
UV 0 out of 16
Pollen 9.40 out of 12
Air Quality Not available.
Flu Activity Sporadic
METAR KITR 180353Z AUTO 18017KT 10SM CLR 05/03 A3013 RMK AO2 SLP205 T00500028

More Conditions Fewer Conditions

Pressure 30.14 in
Visibility 10.0 miles
Clouds Clear
Windchill 39 °F
Dew Point 35 °F
Humidity 84%
Rainfall 0.00 in
Snow Depth Not available.
UV 0 out of 16
Pollen 9.40 out of 12
Air Quality Not available.
Flu Activity Sporadic
METAR KITR 180353Z AUTO 18017KT 10SM CLR 05/03 A3013 RMK AO2 SLP205 T00500028

More Conditions Fewer Conditions

10-Day Forecast

Almanac

Astronomy

Apr. 17, 2014 Rise Set
Actual Time 6:09 AM MDT 7:28 PM MDT
Civil Twilight 5:41 AM MDT 7:55 PM MDT
Nautical Twilight 5:08 AM MDT 8:29 PM MDT
Astronomical Twilight 4:33 AM MDT 9:03 PM MDT
Moon 10:14 PM MDT (4/17) 7:43 AM MDT (4/17)
Length of Visible Light 14h 14m
Length of Day
13h 18m
Tomorrow will be 2m 23s longer.
Waning Gibbous, 90% of the Moon is Illuminated
Apr 18
Waning Gibbous
Apr 22
Last Quarter
Apr 29
New
May 6
First Quarter
May 14
Full

Yesterday's Extremes

State Highs State Lows

Community

  • SUNRISE THROUGH THE TREES.
    SUNRISE THROUGH THE TREES.
  • Dog Wood Blossoms
    Dog Wood Blossoms
  • Morning Light
    Morning Light
  • New Day
    New Day
  • Lake Michigan Sunrise
    Lake Michigan Sunrise

WunderPhotos

Upload Photos

1,702,258 photos uploaded!

WunderBlogs® & News

Nearby

Snow Depth

Station Depth Elevation
Glen Cove 19 in 11460 ft
Echo Lake 30 in 10600 ft
Medano Pass 3 in 9620 ft
Apishapa 6 in 10000 ft
South Colony 64 in 10800 ft

Coastal Water Temperatures

Place Temperature
No Stations Reporting

Earthquake Activity

City Distance Mag. Time & Date
No recent earthquake activity has been reported nearby.
Minimum magnitude displayed is 2.5.

Nearby Weather Stations

Station Location Temp. Windchill Dew Point Humidity Wind Precip. Elev Updated Type
MesoWest ARAPHO , Arapahoe, CO 47 °F 47 °F - - North  at  - 0.00 in / hr 3991 ft 7:00 PM MDT MADIS
DW8525, Cheyenne Wells, CO 39.1 °F 39 °F 35 °F 84% SSW  at  0.0 mph 0.00 in / hr 4308 ft 10:55 PM MDT Rapid Fire
MesoWest FRSTVW , Cheyenne Wells, CO 39 °F 39 °F - - North  at  - 0.00 in / hr 4457 ft 9:30 PM MDT MADIS
4M Feeders, Stratton, CO 39.2 °F 39 °F 36 °F 90% SSW  at  0.0 mph 0.00 in / hr 4531 ft 10:54 PM MDT Normal

Show More Stations Show Fewer Stations

What do you think?

We're not finished. Please let us know what you like, what you don't like, and what you are still missing.